sensor_id;sensor_type;location;lat;lon;timestamp;pressure;altitude;pressure_sealevel;temperature;humidity
68525;BME280;55524;51.380;13.372;2023-09-18T00:00:49;100258.44;;;17.03;100.00
68525;BME280;55524;51.380;13.372;2023-09-18T00:03:19;100262.91;;;17.02;100.00
68525;BME280;55524;51.380;13.372;2023-09-18T00:05:49;100264.72;;;17.02;100.00
68525;BME280;55524;51.380;13.372;2023-09-18T00:08:16;100253.31;;;17.00;100.00
68525;BME280;55524;51.380;13.372;2023-09-18T00:10:46;100249.03;;;16.97;100.00
68525;BME280;55524;51.380;13.372;2023-09-18T00:13:13;100242.72;;;16.98;100.00
68525;BME280;55524;51.380;13.372;2023-09-18T00:15:40;100241.22;;;16.94;100.00
68525;BME280;55524;51.380;13.372;2023-09-18T00:18:07;100235.97;;;16.92;100.00
68525;BME280;55524;51.380;13.372;2023-09-18T00:20:34;100234.28;;;16.91;100.00
68525;BME280;55524;51.380;13.372;2023-09-18T00:23:01;100225.50;;;16.89;100.00
68525;BME280;55524;51.380;13.372;2023-09-18T00:25:27;100228.38;;;16.86;100.00
68525;BME280;55524;51.380;13.372;2023-09-18T00:27:53;100224.00;;;16.85;100.00
68525;BME280;55524;51.380;13.372;2023-09-18T00:30:20;100229.34;;;16.85;100.00
68525;BME280;55524;51.380;13.372;2023-09-18T00:32:46;100229.47;;;16.84;100.00
68525;BME280;55524;51.380;13.372;2023-09-18T00:35:16;100221.66;;;16.81;100.00
68525;BME280;55524;51.380;13.372;2023-09-18T00:37:42;100227.19;;;16.78;100.00
68525;BME280;55524;51.380;13.372;2023-09-18T00:40:09;100228.34;;;16.74;100.00
68525;BME280;55524;51.380;13.372;2023-09-18T00:42:37;100227.00;;;16.66;100.00
68525;BME280;55524;51.380;13.372;2023-09-18T00:45:03;100218.34;;;16.63;100.00
68525;BME280;55524;51.380;13.372;2023-09-18T00:47:29;100221.88;;;16.63;100.00
68525;BME280;55524;51.380;13.372;2023-09-18T00:49:56;100214.16;;;16.59;100.00
68525;BME280;55524;51.380;13.372;2023-09-18T00:52:23;100219.72;;;16.56;100.00
68525;BME280;55524;51.380;13.372;2023-09-18T00:54:51;100215.63;;;16.50;100.00
68525;BME280;55524;51.380;13.372;2023-09-18T00:57:18;100216.72;;;16.47;100.00
68525;BME280;55524;51.380;13.372;2023-09-18T00:59:45;100214.97;;;16.46;100.00
68525;BME280;55524;51.380;13.372;2023-09-18T01:02:12;100207.19;;;16.43;100.00
68525;BME280;55524;51.380;13.372;2023-09-18T01:04:39;100205.56;;;16.41;100.00
68525;BME280;55524;51.380;13.372;2023-09-18T01:07:10;100194.91;;;16.41;100.00
68525;BME280;55524;51.380;13.372;2023-09-18T01:09:36;100195.75;;;16.41;100.00
68525;BME280;55524;51.380;13.372;2023-09-18T01:15:07;100193.94;;;16.42;100.00
68525;BME280;55524;51.380;13.372;2023-09-18T01:17:38;100189.91;;;16.49;100.00
68525;BME280;55524;51.380;13.372;2023-09-18T01:20:08;100188.09;;;16.50;100.00
68525;BME280;55524;51.380;13.372;2023-09-18T01:22:35;100180.00;;;16.51;100.00
68525;BME280;55524;51.380;13.372;2023-09-18T01:25:01;100171.91;;;16.53;100.00
68525;BME280;55524;51.380;13.372;2023-09-18T01:27:27;100177.13;;;16.54;100.00
68525;BME280;55524;51.380;13.372;2023-09-18T01:29:54;100174.13;;;16.59;100.00
68525;BME280;55524;51.380;13.372;2023-09-18T01:32:23;100164.03;;;16.64;100.00
68525;BME280;55524;51.380;13.372;2023-09-18T01:34:54;100157.72;;;16.65;100.00
68525;BME280;55524;51.380;13.372;2023-09-18T01:37:25;100152.50;;;16.63;100.00
68525;BME280;55524;51.380;13.372;2023-09-18T01:39:53;100151.63;;;16.63;100.00
68525;BME280;55524;51.380;13.372;2023-09-18T01:42:20;100146.53;;;16.60;100.00
68525;BME280;55524;51.380;13.372;2023-09-18T01:44:48;100150.03;;;16.60;100.00
68525;BME280;55524;51.380;13.372;2023-09-18T01:47:18;100143.00;;;16.59;100.00
68525;BME280;55524;51.380;13.372;2023-09-18T01:49:45;100147.25;;;16.62;100.00
68525;BME280;55524;51.380;13.372;2023-09-18T01:52:12;100146.28;;;16.63;100.00
68525;BME280;55524;51.380;13.372;2023-09-18T01:54:39;100135.41;;;16.66;100.00
68525;BME280;55524;51.380;13.372;2023-09-18T01:57:05;100139.25;;;16.62;100.00
68525;BME280;55524;51.380;13.372;2023-09-18T01:59:34;100145.75;;;16.58;100.00
68525;BME280;55524;51.380;13.372;2023-09-18T02:02:00;100136.25;;;16.54;100.00
68525;BME280;55524;51.380;13.372;2023-09-18T02:04:29;100131.09;;;16.51;100.00
68525;BME280;55524;51.380;13.372;2023-09-18T02:06:56;100127.91;;;16.45;100.00
68525;BME280;55524;51.380;13.372;2023-09-18T02:09:23;100136.88;;;16.44;100.00
68525;BME280;55524;51.380;13.372;2023-09-18T02:11:49;100128.88;;;16.44;100.00
68525;BME280;55524;51.380;13.372;2023-09-18T02:14:15;100128.88;;;16.44;100.00
68525;BME280;55524;51.380;13.372;2023-09-18T02:16:42;100124.38;;;16.45;100.00
68525;BME280;55524;51.380;13.372;2023-09-18T02:19:13;100115.63;;;16.43;100.00
68525;BME280;55524;51.380;13.372;2023-09-18T02:21:40;100118.59;;;16.38;100.00
68525;BME280;55524;51.380;13.372;2023-09-18T02:24:07;100100.91;;;16.37;100.00
68525;BME280;55524;51.380;13.372;2023-09-18T02:26:33;100100.03;;;16.37;100.00
68525;BME280;55524;51.380;13.372;2023-09-18T02:29:08;100101.84;;;16.36;100.00
68525;BME280;55524;51.380;13.372;2023-09-18T02:31:37;100117.28;;;16.31;100.00
68525;BME280;55524;51.380;13.372;2023-09-18T02:34:03;100107.16;;;16.23;100.00
68525;BME280;55524;51.380;13.372;2023-09-18T02:36:30;100099.56;;;16.17;100.00
68525;BME280;55524;51.380;13.372;2023-09-18T02:38:56;100098.91;;;16.14;100.00
68525;BME280;55524;51.380;13.372;2023-09-18T02:41:23;100092.91;;;16.10;100.00
68525;BME280;55524;51.380;13.372;2023-09-18T02:43:49;100082.66;;;16.04;100.00
68525;BME280;55524;51.380;13.372;2023-09-18T02:46:15;100090.75;;;16.03;100.00
68525;BME280;55524;51.380;13.372;2023-09-18T02:48:41;100080.38;;;15.98;100.00
68525;BME280;55524;51.380;13.372;2023-09-18T02:51:08;100082.19;;;15.97;100.00
68525;BME280;55524;51.380;13.372;2023-09-18T02:53:34;100084.09;;;15.95;100.00
68525;BME280;55524;51.380;13.372;2023-09-18T02:56:01;100081.84;;;15.89;100.00
68525;BME280;55524;51.380;13.372;2023-09-18T02:58:27;100085.75;;;15.84;100.00
68525;BME280;55524;51.380;13.372;2023-09-18T03:00:56;100085.31;;;15.77;100.00
68525;BME280;55524;51.380;13.372;2023-09-18T03:03:26;100082.84;;;15.74;100.00
68525;BME280;55524;51.380;13.372;2023-09-18T03:05:52;100084.78;;;15.72;100.00
68525;BME280;55524;51.380;13.372;2023-09-18T03:08:19;100079.63;;;15.69;100.00
68525;BME280;55524;51.380;13.372;2023-09-18T03:10:45;100077.22;;;15.64;100.00
68525;BME280;55524;51.380;13.372;2023-09-18T03:13:13;100090.09;;;15.72;100.00
68525;BME280;55524;51.380;13.372;2023-09-18T03:15:40;100094.53;;;15.71;100.00
68525;BME280;55524;51.380;13.372;2023-09-18T03:18:10;100097.78;;;15.77;100.00
68525;BME280;55524;51.380;13.372;2023-09-18T03:20:36;100092.91;;;15.83;100.00
68525;BME280;55524;51.380;13.372;2023-09-18T03:23:03;100096.63;;;15.81;100.00
68525;BME280;55524;51.380;13.372;2023-09-18T03:25:29;100089.50;;;15.81;100.00
68525;BME280;55524;51.380;13.372;2023-09-18T03:27:57;100081.50;;;15.81;100.00
68525;BME280;55524;51.380;13.372;2023-09-18T03:30:24;100070.06;;;15.79;100.00
68525;BME280;55524;51.380;13.372;2023-09-18T03:32:51;100068.38;;;15.78;100.00
68525;BME280;55524;51.380;13.372;2023-09-18T03:35:18;100067.41;;;15.79;100.00
68525;BME280;55524;51.380;13.372;2023-09-18T03:37:49;100061.53;;;15.74;100.00
68525;BME280;55524;51.380;13.372;2023-09-18T03:40:17;100058.88;;;15.74;100.00
68525;BME280;55524;51.380;13.372;2023-09-18T03:42:45;100060.78;;;15.72;100.00
68525;BME280;55524;51.380;13.372;2023-09-18T03:45:12;100060.00;;;15.70;100.00
68525;BME280;55524;51.380;13.372;2023-09-18T03:47:40;100060.00;;;15.70;100.00
68525;BME280;55524;51.380;13.372;2023-09-18T03:50:08;100055.72;;;15.67;100.00
68525;BME280;55524;51.380;13.372;2023-09-18T03:52:36;100055.03;;;15.64;100.00
68525;BME280;55524;51.380;13.372;2023-09-18T03:55:03;100052.47;;;15.62;100.00
68525;BME280;55524;51.380;13.372;2023-09-18T03:57:29;100048.19;;;15.60;100.00
68525;BME280;55524;51.380;13.372;2023-09-18T03:59:55;100049.16;;;15.59;100.00
68525;BME280;55524;51.380;13.372;2023-09-18T04:02:23;100038.63;;;15.57;100.00
68525;BME280;55524;51.380;13.372;2023-09-18T04:04:50;100038.44;;;15.60;100.00
68525;BME280;55524;51.380;13.372;2023-09-18T04:07:16;100031.06;;;15.64;100.00
68525;BME280;55524;51.380;13.372;2023-09-18T04:09:43;100035.53;;;15.63;100.00
68525;BME280;55524;51.380;13.372;2023-09-18T04:12:09;100034.03;;;15.59;100.00
68525;BME280;55524;51.380;13.372;2023-09-18T04:14:36;100029.00;;;15.55;100.00
68525;BME280;55524;51.380;13.372;2023-09-18T04:17:02;100036.44;;;15.49;100.00
68525;BME280;55524;51.380;13.372;2023-09-18T04:19:29;100032.94;;;15.49;100.00
68525;BME280;55524;51.380;13.372;2023-09-18T04:21:55;100031.13;;;15.49;100.00
68525;BME280;55524;51.380;13.372;2023-09-18T04:24:22;100031.84;;;15.52;100.00
68525;BME280;55524;51.380;13.372;2023-09-18T04:26:49;100017.63;;;15.53;100.00
68525;BME280;55524;51.380;13.372;2023-09-18T04:29:19;100028.69;;;15.59;100.00
68525;BME280;55524;51.380;13.372;2023-09-18T04:31:45;100019.66;;;15.62;100.00
68525;BME280;55524;51.380;13.372;2023-09-18T04:34:13;100017.97;;;15.61;100.00
68525;BME280;55524;51.380;13.372;2023-09-18T04:36:39;100015.69;;;15.69;100.00
68525;BME280;55524;51.380;13.372;2023-09-18T04:39:06;100006.44;;;15.74;100.00
68525;BME280;55524;51.380;13.372;2023-09-18T04:41:33;100008.44;;;15.71;100.00
68525;BME280;55524;51.380;13.372;2023-09-18T04:43:59;99999.72;;;15.69;100.00
68525;BME280;55524;51.380;13.372;2023-09-18T04:46:26;100007.78;;;15.67;100.00
68525;BME280;55524;51.380;13.372;2023-09-18T04:48:52;100007.09;;;15.64;100.00
68525;BME280;55524;51.380;13.372;2023-09-18T04:51:18;100006.34;;;15.62;100.00
68525;BME280;55524;51.380;13.372;2023-09-18T04:53:45;100003.69;;;15.62;100.00
68525;BME280;55524;51.380;13.372;2023-09-18T04:56:11;100006.66;;;15.57;100.00
68525;BME280;55524;51.380;13.372;2023-09-18T04:58:38;99995.22;;;15.55;100.00
68525;BME280;55524;51.380;13.372;2023-09-18T05:01:04;100000.56;;;15.55;100.00
68525;BME280;55524;51.380;13.372;2023-09-18T05:03:33;99993.41;;;15.56;100.00
68525;BME280;55524;51.380;13.372;2023-09-18T05:06:00;99989.81;;;15.57;100.00
68525;BME280;55524;51.380;13.372;2023-09-18T05:08:26;99981.59;;;15.60;100.00
68525;BME280;55524;51.380;13.372;2023-09-18T05:10:52;99982.50;;;15.60;100.00
68525;BME280;55524;51.380;13.372;2023-09-18T05:13:19;99984.00;;;15.64;100.00
68525;BME280;55524;51.380;13.372;2023-09-18T05:15:45;99979.13;;;15.71;100.00
68525;BME280;55524;51.380;13.372;2023-09-18T05:18:11;99977.03;;;15.76;100.00
68525;BME280;55524;51.380;13.372;2023-09-18T05:20:39;99980.31;;;15.80;100.00
68525;BME280;55524;51.380;13.372;2023-09-18T05:23:05;99978.75;;;15.90;100.00
68525;BME280;55524;51.380;13.372;2023-09-18T05:25:33;99977.41;;;15.97;100.00
68525;BME280;55524;51.380;13.372;2023-09-18T05:28:00;99978.38;;;16.09;100.00
68525;BME280;55524;51.380;13.372;2023-09-18T05:30:34;99976.06;;;16.17;100.00
68525;BME280;55524;51.380;13.372;2023-09-18T05:33:02;99984.72;;;16.33;100.00
68525;BME280;55524;51.380;13.372;2023-09-18T05:35:35;99972.66;;;16.40;100.00
68525;BME280;55524;51.380;13.372;2023-09-18T05:38:05;99973.19;;;16.45;100.00
68525;BME280;55524;51.380;13.372;2023-09-18T05:40:32;99968.50;;;16.49;100.00
68525;BME280;55524;51.380;13.372;2023-09-18T05:42:59;99971.59;;;16.56;100.00
68525;BME280;55524;51.380;13.372;2023-09-18T05:45:25;99964.63;;;16.66;100.00
68525;BME280;55524;51.380;13.372;2023-09-18T05:47:53;99956.44;;;16.69;100.00
68525;BME280;55524;51.380;13.372;2023-09-18T05:50:31;99958.13;;;16.70;100.00
68525;BME280;55524;51.380;13.372;2023-09-18T05:52:58;99949.81;;;16.75;100.00
68525;BME280;55524;51.380;13.372;2023-09-18T05:55:27;99950.78;;;16.74;100.00
68525;BME280;55524;51.380;13.372;2023-09-18T05:57:54;99942.25;;;16.81;100.00
68525;BME280;55524;51.380;13.372;2023-09-18T06:00:20;99933.69;;;16.89;100.00
68525;BME280;55524;51.380;13.372;2023-09-18T06:02:47;99928.00;;;16.93;100.00
68525;BME280;55524;51.380;13.372;2023-09-18T06:05:14;99929.50;;;16.98;100.00
68525;BME280;55524;51.380;13.372;2023-09-18T06:07:42;99922.41;;;17.09;100.00
68525;BME280;55524;51.380;13.372;2023-09-18T06:10:08;99921.75;;;17.18;100.00
68525;BME280;55524;51.380;13.372;2023-09-18T06:12:37;99913.41;;;17.23;100.00
68525;BME280;55524;51.380;13.372;2023-09-18T06:15:04;99911.13;;;17.30;100.00
68525;BME280;55524;51.380;13.372;2023-09-18T06:17:30;99903.91;;;17.43;100.00
68525;BME280;55524;51.380;13.372;2023-09-18T06:19:56;99894.84;;;17.57;100.00
68525;BME280;55524;51.380;13.372;2023-09-18T06:22:23;99891.69;;;17.76;100.00
68525;BME280;55524;51.380;13.372;2023-09-18T06:24:49;99886.72;;;17.82;100.00
68525;BME280;55524;51.380;13.372;2023-09-18T06:27:15;99897.06;;;17.87;100.00
68525;BME280;55524;51.380;13.372;2023-09-18T06:29:41;99893.31;;;18.01;100.00
68525;BME280;55524;51.380;13.372;2023-09-18T06:32:09;99893.81;;;18.17;100.00
68525;BME280;55524;51.380;13.372;2023-09-18T06:34:35;99886.56;;;18.30;100.00
68525;BME280;55524;51.380;13.372;2023-09-18T06:37:01;99879.97;;;18.57;100.00
68525;BME280;55524;51.380;13.372;2023-09-18T06:39:29;99867.22;;;18.72;100.00
68525;BME280;55524;51.380;13.372;2023-09-18T06:41:56;99858.44;;;18.92;100.00
68525;BME280;55524;51.380;13.372;2023-09-18T06:44:22;99843.69;;;19.09;100.00
68525;BME280;55524;51.380;13.372;2023-09-18T06:46:49;99836.31;;;19.22;100.00
68525;BME280;55524;51.380;13.372;2023-09-18T06:49:15;99838.97;;;19.33;100.00
68525;BME280;55524;51.380;13.372;2023-09-18T06:51:42;99835.69;;;19.51;100.00
68525;BME280;55524;51.380;13.372;2023-09-18T06:54:08;99828.09;;;19.67;100.00
68525;BME280;55524;51.380;13.372;2023-09-18T06:56:34;99826.66;;;19.84;100.00
68525;BME280;55524;51.380;13.372;2023-09-18T06:59:00;99809.38;;;19.98;100.00
68525;BME280;55524;51.380;13.372;2023-09-18T07:01:27;99810.31;;;20.18;100.00
68525;BME280;55524;51.380;13.372;2023-09-18T07:03:54;99797.22;;;20.34;100.00
68525;BME280;55524;51.380;13.372;2023-09-18T07:06:20;99790.66;;;20.48;100.00
68525;BME280;55524;51.380;13.372;2023-09-18T07:08:47;99776.31;;;20.68;100.00
68525;BME280;55524;51.380;13.372;2023-09-18T07:11:16;99770.28;;;20.95;99.70
68525;BME280;55524;51.380;13.372;2023-09-18T07:13:42;99753.03;;;21.36;95.33
68525;BME280;55524;51.380;13.372;2023-09-18T07:16:09;99733.34;;;21.93;90.35
68525;BME280;55524;51.380;13.372;2023-09-18T07:18:36;99695.28;;;22.61;82.02
68525;BME280;55524;51.380;13.372;2023-09-18T07:21:03;99673.31;;;23.01;76.47
68525;BME280;55524;51.380;13.372;2023-09-18T07:23:29;99661.06;;;23.33;73.04
68525;BME280;55524;51.380;13.372;2023-09-18T07:25:55;99661.16;;;23.75;70.97
68525;BME280;55524;51.380;13.372;2023-09-18T07:28:24;99649.47;;;24.00;68.26
68525;BME280;55524;51.380;13.372;2023-09-18T07:30:51;99643.69;;;23.95;68.20
68525;BME280;55524;51.380;13.372;2023-09-18T07:33:17;99627.41;;;24.21;66.35
68525;BME280;55524;51.380;13.372;2023-09-18T07:35:48;99634.69;;;24.29;65.39
68525;BME280;55524;51.380;13.372;2023-09-18T07:38:17;99639.16;;;24.63;64.54
68525;BME280;55524;51.380;13.372;2023-09-18T07:40:45;99635.44;;;24.64;63.71
68525;BME280;55524;51.380;13.372;2023-09-18T07:43:13;99635.25;;;24.49;62.73
68525;BME280;55524;51.380;13.372;2023-09-18T07:45:40;99618.72;;;24.68;62.58
68525;BME280;55524;51.380;13.372;2023-09-18T07:48:07;99620.75;;;24.74;62.18
68525;BME280;55524;51.380;13.372;2023-09-18T07:50:34;99615.19;;;24.76;61.90
68525;BME280;55524;51.380;13.372;2023-09-18T07:53:01;99615.69;;;24.88;61.12
68525;BME280;55524;51.380;13.372;2023-09-18T07:55:28;99618.22;;;24.89;60.75
68525;BME280;55524;51.380;13.372;2023-09-18T07:57:56;99608.09;;;24.91;60.91
68525;BME280;55524;51.380;13.372;2023-09-18T08:00:22;99610.78;;;24.91;60.86
68525;BME280;55524;51.380;13.372;2023-09-18T08:02:49;99606.72;;;25.12;60.35
68525;BME280;55524;51.380;13.372;2023-09-18T08:05:17;99605.38;;;24.99;60.21
68525;BME280;55524;51.380;13.372;2023-09-18T08:07:43;99620.06;;;24.97;60.17
68525;BME280;55524;51.380;13.372;2023-09-18T08:10:10;99615.81;;;24.94;60.18
68525;BME280;55524;51.380;13.372;2023-09-18T08:12:38;99606.03;;;25.10;59.30
68525;BME280;55524;51.380;13.372;2023-09-18T08:15:05;99606.41;;;25.15;59.63
68525;BME280;55524;51.380;13.372;2023-09-18T08:17:32;99605.34;;;25.08;59.31
68525;BME280;55524;51.380;13.372;2023-09-18T08:19:58;99614.66;;;25.13;59.06
68525;BME280;55524;51.380;13.372;2023-09-18T08:22:25;99608.16;;;25.55;58.16
68525;BME280;55524;51.380;13.372;2023-09-18T08:24:51;99607.81;;;25.50;57.95
68525;BME280;55524;51.380;13.372;2023-09-18T08:27:19;99610.47;;;25.66;57.40
68525;BME280;55524;51.380;13.372;2023-09-18T08:29:46;99610.63;;;25.65;57.33
68525;BME280;55524;51.380;13.372;2023-09-18T08:32:13;99608.06;;;25.80;57.10
68525;BME280;55524;51.380;13.372;2023-09-18T08:34:39;99601.88;;;26.25;56.07
68525;BME280;55524;51.380;13.372;2023-09-18T08:37:05;99601.38;;;26.53;54.54
68525;BME280;55524;51.380;13.372;2023-09-18T08:39:32;99589.44;;;26.85;54.00
68525;BME280;55524;51.380;13.372;2023-09-18T08:42:03;99587.66;;;26.92;54.25
68525;BME280;55524;51.380;13.372;2023-09-18T08:44:30;99585.59;;;26.79;54.16
68525;BME280;55524;51.380;13.372;2023-09-18T08:46:57;99577.94;;;26.83;53.78
68525;BME280;55524;51.380;13.372;2023-09-18T08:49:24;99566.97;;;27.29;52.78
68525;BME280;55524;51.380;13.372;2023-09-18T08:51:53;99548.53;;;27.39;51.87
68525;BME280;55524;51.380;13.372;2023-09-18T08:54:20;99545.13;;;27.52;51.42
68525;BME280;55524;51.380;13.372;2023-09-18T08:56:47;99544.69;;;27.48;51.47
68525;BME280;55524;51.380;13.372;2023-09-18T08:59:14;99560.34;;;27.16;51.41
68525;BME280;55524;51.380;13.372;2023-09-18T09:01:41;99579.41;;;26.47;53.55
68525;BME280;55524;51.380;13.372;2023-09-18T09:04:07;99586.94;;;26.29;54.47
68525;BME280;55524;51.380;13.372;2023-09-18T09:06:33;99589.59;;;26.14;54.99
68525;BME280;55524;51.380;13.372;2023-09-18T09:08:59;99589.28;;;26.09;55.27
68525;BME280;55524;51.380;13.372;2023-09-18T09:11:27;99600.09;;;25.86;56.06
68525;BME280;55524;51.380;13.372;2023-09-18T09:16:39;99601.88;;;26.02;56.00
68525;BME280;55524;51.380;13.372;2023-09-18T09:19:06;99600.53;;;25.98;56.48
68525;BME280;55524;51.380;13.372;2023-09-18T09:21:40;99593.94;;;26.23;55.59
68525;BME280;55524;51.380;13.372;2023-09-18T09:24:07;99586.00;;;26.22;56.30
68525;BME280;55524;51.380;13.372;2023-09-18T09:26:34;99581.41;;;26.54;55.50
68525;BME280;55524;51.380;13.372;2023-09-18T09:29:15;99570.56;;;26.54;55.04
68525;BME280;55524;51.380;13.372;2023-09-18T09:31:44;99557.06;;;26.83;53.94
68525;BME280;55524;51.380;13.372;2023-09-18T09:34:12;99549.34;;;27.10;52.89
68525;BME280;55524;51.380;13.372;2023-09-18T09:36:54;99549.91;;;27.05;53.04
68525;BME280;55524;51.380;13.372;2023-09-18T09:39:21;99531.16;;;27.69;51.37
68525;BME280;55524;51.380;13.372;2023-09-18T09:41:55;99526.63;;;28.28;50.46
68525;BME280;55524;51.380;13.372;2023-09-18T09:44:21;99520.66;;;28.17;49.79
68525;BME280;55524;51.380;13.372;2023-09-18T09:46:48;99512.97;;;28.42;49.18
68525;BME280;55524;51.380;13.372;2023-09-18T09:49:15;99500.38;;;28.63;48.50
68525;BME280;55524;51.380;13.372;2023-09-18T09:51:42;99496.38;;;28.87;48.15
68525;BME280;55524;51.380;13.372;2023-09-18T09:54:09;99497.75;;;29.39;47.80
68525;BME280;55524;51.380;13.372;2023-09-18T09:56:50;99491.13;;;29.61;47.17
68525;BME280;55524;51.380;13.372;2023-09-18T09:59:20;99489.81;;;29.09;47.11
68525;BME280;55524;51.380;13.372;2023-09-18T10:01:47;99494.38;;;28.74;48.00
68525;BME280;55524;51.380;13.372;2023-09-18T10:04:16;99512.88;;;28.36;48.88
68525;BME280;55524;51.380;13.372;2023-09-18T10:06:46;99510.53;;;28.54;48.57
68525;BME280;55524;51.380;13.372;2023-09-18T10:09:14;99510.94;;;28.08;49.66
68525;BME280;55524;51.380;13.372;2023-09-18T10:11:45;99508.88;;;28.32;49.92
68525;BME280;55524;51.380;13.372;2023-09-18T10:14:31;99508.88;;;28.32;49.06
68525;BME280;55524;51.380;13.372;2023-09-18T10:17:04;99515.78;;;28.34;49.04
68525;BME280;55524;51.380;13.372;2023-09-18T10:22:32;99537.88;;;28.25;51.42
68525;BME280;55524;51.380;13.372;2023-09-18T10:25:16;99525.16;;;28.10;49.96
68525;BME280;55524;51.380;13.372;2023-09-18T10:27:49;99537.44;;;27.85;50.61
68525;BME280;55524;51.380;13.372;2023-09-18T10:30:16;99541.31;;;27.61;51.39
68525;BME280;55524;51.380;13.372;2023-09-18T10:32:46;99546.44;;;27.70;51.16
68525;BME280;55524;51.380;13.372;2023-09-18T10:35:12;99563.34;;;27.36;53.23
68525;BME280;55524;51.380;13.372;2023-09-18T10:37:40;99571.84;;;27.33;53.53
68525;BME280;55524;51.380;13.372;2023-09-18T10:40:08;99559.69;;;27.29;52.78
68525;BME280;55524;51.380;13.372;2023-09-18T10:42:39;99572.88;;;27.17;53.18
68525;BME280;55524;51.380;13.372;2023-09-18T10:45:11;99560.88;;;27.12;53.65
68525;BME280;55524;51.380;13.372;2023-09-18T10:47:39;99567.66;;;27.08;54.47
68525;BME280;55524;51.380;13.372;2023-09-18T10:50:08;99595.91;;;26.98;58.80
68525;BME280;55524;51.380;13.372;2023-09-18T10:52:36;99583.38;;;26.97;57.65
68525;BME280;55524;51.380;13.372;2023-09-18T10:55:12;99572.91;;;26.94;56.37
68525;BME280;55524;51.380;13.372;2023-09-18T10:57:54;99585.78;;;26.92;57.21
68525;BME280;55524;51.380;13.372;2023-09-18T11:00:24;99577.47;;;26.94;57.23
68525;BME280;55524;51.380;13.372;2023-09-18T11:05:36;99588.69;;;27.14;56.63
68525;BME280;55524;51.380;13.372;2023-09-18T11:08:28;99585.22;;;27.35;55.36
68525;BME280;55524;51.380;13.372;2023-09-18T11:11:07;99581.94;;;27.39;54.54
68525;BME280;55524;51.380;13.372;2023-09-18T11:13:40;99589.97;;;27.48;55.78
68525;BME280;55524;51.380;13.372;2023-09-18T11:21:26;99575.09;;;27.88;53.96
68525;BME280;55524;51.380;13.372;2023-09-18T11:26:35;99550.63;;;28.95;51.30
68525;BME280;55524;51.380;13.372;2023-09-18T11:29:05;99526.25;;;29.08;48.90
68525;BME280;55524;51.380;13.372;2023-09-18T11:31:49;99511.78;;;29.97;47.08
68525;BME280;55524;51.380;13.372;2023-09-18T11:34:24;99498.16;;;29.91;46.09
68525;BME280;55524;51.380;13.372;2023-09-18T11:37:21;99486.22;;;30.05;43.82
68525;BME280;55524;51.380;13.372;2023-09-18T11:39:48;99490.72;;;29.64;44.66
68525;BME280;55524;51.380;13.372;2023-09-18T11:42:20;99481.56;;;29.79;44.21
68525;BME280;55524;51.380;13.372;2023-09-18T11:44:53;99477.38;;;29.83;44.72
68525;BME280;55524;51.380;13.372;2023-09-18T11:47:24;99478.25;;;29.90;44.12
68525;BME280;55524;51.380;13.372;2023-09-18T11:49:59;99459.41;;;30.15;42.46
68525;BME280;55524;51.380;13.372;2023-09-18T11:52:27;99462.34;;;30.20;41.71
68525;BME280;55524;51.380;13.372;2023-09-18T11:54:59;99460.88;;;30.44;42.54
68525;BME280;55524;51.380;13.372;2023-09-18T11:57:27;99458.16;;;30.24;41.89
68525;BME280;55524;51.380;13.372;2023-09-18T11:59:54;99452.91;;;30.16;42.05
68525;BME280;55524;51.380;13.372;2023-09-18T12:02:32;99469.41;;;29.75;43.46
68525;BME280;55524;51.380;13.372;2023-09-18T12:05:17;99468.75;;;29.66;43.80
68525;BME280;55524;51.380;13.372;2023-09-18T12:07:45;99476.13;;;29.37;44.80
68525;BME280;55524;51.380;13.372;2023-09-18T12:10:16;99468.41;;;29.34;44.02
68525;BME280;55524;51.380;13.372;2023-09-18T12:12:43;99466.22;;;29.16;43.67
68525;BME280;55524;51.380;13.372;2023-09-18T12:15:19;99472.06;;;28.85;44.54
68525;BME280;55524;51.380;13.372;2023-09-18T12:17:46;99479.94;;;28.46;45.63
68525;BME280;55524;51.380;13.372;2023-09-18T12:20:16;99479.88;;;28.17;45.67
68525;BME280;55524;51.380;13.372;2023-09-18T12:22:49;99496.72;;;28.28;46.48
68525;BME280;55524;51.380;13.372;2023-09-18T12:25:19;99490.75;;;27.96;46.72
68525;BME280;55524;51.380;13.372;2023-09-18T12:27:46;99486.13;;;28.11;46.81
68525;BME280;55524;51.380;13.372;2023-09-18T12:30:17;99503.44;;;28.10;47.20
68525;BME280;55524;51.380;13.372;2023-09-18T12:32:47;99509.84;;;28.24;46.98
68525;BME280;55524;51.380;13.372;2023-09-18T12:35:16;99510.16;;;28.14;47.90
68525;BME280;55524;51.380;13.372;2023-09-18T12:37:45;99514.06;;;28.05;47.41
68525;BME280;55524;51.380;13.372;2023-09-18T12:40:31;99513.34;;;27.97;47.62
68525;BME280;55524;51.380;13.372;2023-09-18T12:43:00;99525.19;;;27.74;48.68
68525;BME280;55524;51.380;13.372;2023-09-18T12:45:28;99521.09;;;27.49;48.66
68525;BME280;55524;51.380;13.372;2023-09-18T12:47:56;99524.75;;;27.41;49.40
68525;BME280;55524;51.380;13.372;2023-09-18T12:50:24;99527.13;;;27.29;49.64
68525;BME280;55524;51.380;13.372;2023-09-18T12:52:50;99532.34;;;27.31;49.66
68525;BME280;55524;51.380;13.372;2023-09-18T12:55:23;99545.78;;;27.09;50.10
68525;BME280;55524;51.380;13.372;2023-09-18T12:57:51;99553.63;;;27.04;51.06
68525;BME280;55524;51.380;13.372;2023-09-18T13:00:19;99555.22;;;26.98;50.94
68525;BME280;55524;51.380;13.372;2023-09-18T13:02:49;99554.84;;;26.87;51.81
68525;BME280;55524;51.380;13.372;2023-09-18T13:05:22;99573.78;;;26.72;53.48